createdAt,value
2023-04-10T00:00:53.660Z,13.43
2023-04-10T00:02:56.656Z,13.45
2023-04-10T00:04:58.345Z,13.42
2023-04-10T00:06:59.988Z,13.44
2023-04-10T00:09:01.552Z,13.47
2023-04-10T00:11:03.724Z,13.50
2023-04-10T00:13:05.360Z,13.47
2023-04-10T00:15:08.111Z,13.42
2023-04-10T00:17:09.745Z,13.44
2023-04-10T00:19:12.787Z,13.34
2023-04-10T00:21:14.367Z,13.25
2023-04-10T00:23:15.889Z,13.13
2023-04-10T00:25:17.615Z,13.10
2023-04-10T00:27:19.214Z,13.09
2023-04-10T00:29:20.757Z,13.02
2023-04-10T00:31:22.390Z,13.04
2023-04-10T00:33:23.959Z,13.07
2023-04-10T00:35:26.867Z,13.07
2023-04-10T00:37:28.425Z,13.06
2023-04-10T00:39:30.002Z,13.02
2023-04-10T00:41:31.657Z,12.91
2023-04-10T00:43:33.238Z,12.84
2023-04-10T00:45:35.045Z,12.82
2023-04-10T00:47:37.565Z,12.78
2023-04-10T00:49:39.248Z,12.77
2023-04-10T00:51:42.105Z,12.73
2023-04-10T00:53:43.707Z,12.64
2023-04-10T00:55:45.675Z,12.62
2023-04-10T00:57:48.052Z,12.57
2023-04-10T00:59:50.254Z,12.61
2023-04-10T01:01:51.961Z,12.56
2023-04-10T01:03:54.845Z,12.52
2023-04-10T01:06:05.673Z,12.57
2023-04-10T01:08:17.662Z,12.49
2023-04-10T01:10:28.978Z,12.44
2023-04-10T01:12:43.310Z,12.52
2023-04-10T01:14:52.520Z,12.61
2023-04-10T01:16:57.851Z,12.61
2023-04-10T01:19:07.943Z,12.58
2023-04-10T01:21:11.766Z,12.62
2023-04-10T01:23:42.463Z,12.65
2023-04-10T01:25:48.547Z,12.61
2023-04-10T01:28:05.076Z,12.55
2023-04-10T01:30:14.305Z,12.58
2023-04-10T01:32:20.189Z,12.60
2023-04-10T01:34:25.462Z,12.41
2023-04-10T01:36:33.654Z,12.39
2023-04-10T01:38:36.262Z,12.35
2023-04-10T01:40:40.402Z,12.28
2023-04-10T01:42:47.472Z,12.14
2023-04-10T01:44:50.281Z,11.99
2023-04-10T01:46:54.340Z,11.94
2023-04-10T01:48:56.832Z,11.83
2023-04-10T01:51:04.029Z,11.74
2023-04-10T01:53:07.293Z,11.77
2023-04-10T01:55:10.198Z,11.75
2023-04-10T01:57:12.484Z,11.69
2023-04-10T01:59:14.158Z,11.56
2023-04-10T02:01:28.362Z,11.62
2023-04-10T02:03:32.990Z,11.50
2023-04-10T02:05:55.936Z,11.53
2023-04-10T02:08:02.307Z,11.61
2023-04-10T02:10:11.773Z,11.65
2023-04-10T02:12:16.727Z,11.62
2023-04-10T02:14:21.672Z,11.64
2023-04-10T02:16:23.910Z,11.77
2023-04-10T02:18:26.897Z,11.75
2023-04-10T02:20:30.952Z,11.70
2023-04-10T02:22:33.575Z,11.53
2023-04-10T02:24:35.632Z,11.39
2023-04-10T02:26:47.002Z,11.44
2023-04-10T02:28:48.586Z,11.57
2023-04-10T02:30:50.230Z,11.57
2023-04-10T02:32:51.840Z,11.58
2023-04-10T02:34:53.633Z,11.56
2023-04-10T02:36:56.738Z,11.54
2023-04-10T02:38:58.271Z,11.51
2023-04-10T02:40:59.797Z,11.45
2023-04-10T02:43:04.354Z,11.32
2023-04-10T02:45:08.784Z,11.22
2023-04-10T02:47:10.348Z,11.25
2023-04-10T02:49:11.881Z,11.18
2023-04-10T02:51:13.647Z,11.14
2023-04-10T02:53:17.175Z,11.06
2023-04-10T02:55:18.981Z,11.02
2023-04-10T02:57:20.567Z,11.04
2023-04-10T02:59:22.125Z,10.98
2023-04-10T03:01:23.729Z,11.03
2023-04-10T03:03:25.767Z,11.04
2023-04-10T03:05:27.477Z,10.92
2023-04-10T03:07:29.265Z,10.89
2023-04-10T03:09:32.162Z,10.89
2023-04-10T03:11:33.880Z,10.88
2023-04-10T03:13:35.598Z,10.86
2023-04-10T03:15:37.967Z,10.90
2023-04-10T03:17:39.522Z,10.83
2023-04-10T03:19:41.080Z,10.79
2023-04-10T03:21:42.704Z,10.74
2023-04-10T03:23:44.517Z,10.71
2023-04-10T03:25:51.359Z,10.71
2023-04-10T03:27:52.957Z,10.72
2023-04-10T03:29:54.658Z,10.81
2023-04-10T03:31:56.294Z,10.78
2023-04-10T03:33:58.260Z,10.69
2023-04-10T03:36:00.236Z,10.67
2023-04-10T03:38:01.959Z,10.73
2023-04-10T03:40:07.422Z,10.77
2023-04-10T03:42:10.400Z,10.84
2023-04-10T03:44:12.022Z,10.89
2023-04-10T03:46:13.590Z,10.94
2023-04-10T03:48:15.121Z,11.00
2023-04-10T03:50:16.818Z,10.92
2023-04-10T03:52:18.310Z,10.90
2023-04-10T03:54:20.047Z,10.89
2023-04-10T03:56:24.639Z,10.83
2023-04-10T03:58:27.528Z,10.90
2023-04-10T04:00:29.290Z,10.86
2023-04-10T04:02:31.186Z,10.94
2023-04-10T04:04:33.122Z,10.96
2023-04-10T04:06:35.136Z,10.92
2023-04-10T04:08:36.697Z,10.91
2023-04-10T04:10:38.177Z,10.86
2023-04-10T04:12:39.788Z,10.87
2023-04-10T04:14:42.631Z,10.83
2023-04-10T04:16:44.269Z,10.78
2023-04-10T04:18:45.870Z,10.72
2023-04-10T04:20:47.442Z,10.77
2023-04-10T04:22:49.333Z,10.76
2023-04-10T04:24:50.858Z,10.90
2023-04-10T04:26:52.647Z,10.86
2023-04-10T04:28:54.200Z,10.82
2023-04-10T04:30:57.109Z,10.82
2023-04-10T04:32:58.756Z,10.81
2023-04-10T04:35:00.496Z,10.92
2023-04-10T04:37:02.083Z,10.93
2023-04-10T04:39:03.865Z,10.98
2023-04-10T04:41:05.888Z,11.03
2023-04-10T04:43:07.429Z,10.93
2023-04-10T04:45:10.205Z,10.80
2023-04-10T04:47:13.078Z,10.74
2023-04-10T04:49:14.656Z,10.69
2023-04-10T04:51:16.241Z,10.57
2023-04-10T04:53:17.827Z,10.51
2023-04-10T04:55:19.361Z,10.46
2023-04-10T04:57:21.373Z,10.39
2023-04-10T04:59:25.823Z,10.33
2023-04-10T05:01:27.374Z,10.43
2023-04-10T05:03:30.432Z,10.32
2023-04-10T05:05:32.274Z,10.31
2023-04-10T05:07:33.811Z,10.27
2023-04-10T05:09:35.443Z,10.23
2023-04-10T05:11:37.023Z,10.19
2023-04-10T05:13:38.627Z,10.17
2023-04-10T05:15:40.208Z,10.17
2023-04-10T05:17:42.102Z,10.24
2023-04-10T05:19:45.110Z,10.28
2023-04-10T05:21:46.630Z,10.30
2023-04-10T05:23:48.140Z,10.42
2023-04-10T05:25:49.683Z,10.53
2023-04-10T05:27:51.330Z,10.46
2023-04-10T05:29:52.989Z,10.46
2023-04-10T05:31:54.630Z,10.45
2023-04-10T05:33:56.144Z,10.55
2023-04-10T05:35:59.031Z,10.65
2023-04-10T05:38:00.744Z,10.76
2023-04-10T05:40:02.406Z,10.86
2023-04-10T05:42:03.973Z,10.97
2023-04-10T05:44:05.544Z,11.05
2023-04-10T05:46:07.434Z,11.14
2023-04-10T05:48:09.162Z,11.29
2023-04-10T05:50:10.710Z,11.29
2023-04-10T05:52:13.661Z,11.36
2023-04-10T05:54:15.168Z,11.45
2023-04-10T05:56:16.742Z,11.39
2023-04-10T05:58:18.322Z,11.49
2023-04-10T06:00:19.931Z,11.55
2023-04-10T06:02:21.750Z,11.66
2023-04-10T06:04:23.754Z,11.72
2023-04-10T06:06:25.764Z,11.85
2023-04-10T06:08:28.847Z,11.95
2023-04-10T06:10:30.504Z,12.00
2023-04-10T06:12:32.225Z,12.07
2023-04-10T06:14:35.341Z,12.13
2023-04-10T06:16:37.087Z,12.10
2023-04-10T06:18:38.919Z,12.13
2023-04-10T06:20:40.485Z,12.25
2023-04-10T06:22:42.093Z,12.39
2023-04-10T06:24:44.924Z,12.54
2023-04-10T06:26:46.437Z,12.62
2023-04-10T06:28:48.034Z,12.70
2023-04-10T06:30:49.646Z,12.67
2023-04-10T06:32:51.296Z,12.69
2023-04-10T06:34:52.896Z,12.71
2023-04-10T06:36:54.402Z,12.77
2023-04-10T06:38:56.055Z,12.79
2023-04-10T06:40:59.137Z,12.90
2023-04-10T06:43:00.835Z,12.92
2023-04-10T06:45:02.962Z,12.98
2023-04-10T06:47:04.542Z,13.04
2023-04-10T06:49:06.093Z,13.00
2023-04-10T06:51:07.973Z,13.05
2023-04-10T06:53:09.472Z,13.21
2023-04-10T06:55:11.538Z,13.36
2023-04-10T06:57:14.566Z,13.40
2023-04-10T06:59:16.111Z,13.47
2023-04-10T07:01:17.832Z,13.49
2023-04-10T07:03:19.657Z,13.54
2023-04-10T07:05:21.411Z,13.61
2023-04-10T07:07:23.289Z,13.78
2023-04-10T07:09:25.391Z,13.92
2023-04-10T07:11:29.191Z,14.04
2023-04-10T07:13:32.311Z,13.97
2023-04-10T07:15:33.961Z,14.09
2023-04-10T07:17:35.803Z,14.23
2023-04-10T07:19:40.473Z,14.37
2023-04-10T07:21:42.063Z,14.46
2023-04-10T07:23:43.690Z,14.56
2023-04-10T07:25:46.184Z,14.66
2023-04-10T07:27:47.727Z,14.75
2023-04-10T07:29:50.858Z,14.95
2023-04-10T07:31:52.441Z,15.10
2023-04-10T07:33:54.020Z,15.14
2023-04-10T07:35:55.684Z,15.24
2023-04-10T07:37:57.263Z,15.37
2023-04-10T07:39:58.828Z,15.54
2023-04-10T07:42:00.632Z,15.45
2023-04-10T07:44:02.172Z,15.51
2023-04-10T07:46:05.581Z,15.53
2023-04-10T07:48:07.298Z,15.51
2023-04-10T07:50:09.356Z,15.58
2023-04-10T07:52:10.939Z,15.70
2023-04-10T07:54:12.561Z,15.82
2023-04-10T07:56:17.796Z,15.97
2023-04-10T07:58:19.395Z,15.95
2023-04-10T08:00:21.296Z,16.03
2023-04-10T08:02:24.425Z,15.94
2023-04-10T08:04:26.308Z,16.01
2023-04-10T08:06:28.135Z,16.06
2023-04-10T08:08:29.863Z,16.22
2023-04-10T08:10:31.461Z,16.19
2023-04-10T08:12:33.628Z,16.19
2023-04-10T08:14:35.181Z,16.24
2023-04-10T08:16:36.882Z,16.30
2023-04-10T08:18:39.919Z,16.37
2023-04-10T08:20:41.541Z,16.46
2023-04-10T08:22:43.233Z,16.40
2023-04-10T08:24:44.873Z,16.43
2023-04-10T08:26:46.403Z,16.40
2023-04-10T08:28:48.982Z,16.39
2023-04-10T08:30:52.988Z,16.40
2023-04-10T08:32:54.533Z,16.46
2023-04-10T08:34:57.449Z,16.43
2023-04-10T08:36:59.090Z,16.52
2023-04-10T08:39:00.693Z,16.61
2023-04-10T08:41:02.365Z,16.66
2023-04-10T08:43:04.039Z,16.66
2023-04-10T08:45:06.709Z,16.65
2023-04-10T08:47:08.979Z,16.74
2023-04-10T08:49:15.496Z,16.82
2023-04-10T08:51:20.648Z,16.83
2023-04-10T08:53:30.853Z,16.88
2023-04-10T08:55:32.620Z,16.90
2023-04-10T08:57:36.274Z,16.89
2023-04-10T08:59:38.588Z,16.91
2023-04-10T09:01:40.825Z,16.95
2023-04-10T09:03:42.610Z,16.97
2023-04-10T09:05:44.238Z,16.99
2023-04-10T09:07:47.277Z,17.08
2023-04-10T09:09:49.166Z,17.15
2023-04-10T09:11:57.896Z,17.23
2023-04-10T09:13:59.621Z,17.27
2023-04-10T09:16:01.264Z,17.29
2023-04-10T09:18:03.702Z,17.29
2023-04-10T09:20:21.237Z,17.27
2023-04-10T09:22:30.772Z,17.33
2023-04-10T09:24:36.085Z,17.39
2023-04-10T09:26:42.033Z,17.39
2023-04-10T09:28:56.113Z,17.46
2023-04-10T09:30:57.685Z,17.52
2023-04-10T09:33:00.618Z,17.56
2023-04-10T09:35:03.928Z,17.59
2023-04-10T09:37:05.505Z,17.69
2023-04-10T09:39:07.905Z,17.75
2023-04-10T09:41:11.376Z,17.76
2023-04-10T09:43:20.958Z,17.83
2023-04-10T09:45:22.636Z,17.83
2023-04-10T09:47:24.365Z,17.87
2023-04-10T09:49:26.120Z,17.92
2023-04-10T09:51:32.010Z,17.94
2023-04-10T09:53:48.718Z,17.98
2023-04-10T09:55:50.724Z,17.94
2023-04-10T09:57:53.746Z,18.01
2023-04-10T09:59:56.658Z,18.02
2023-04-10T10:01:58.709Z,18.03
2023-04-10T10:04:02.762Z,18.08
2023-04-10T10:06:04.786Z,18.09
2023-04-10T10:08:07.361Z,18.15
2023-04-10T10:10:09.355Z,18.19
2023-04-10T10:12:12.266Z,18.17
2023-04-10T10:14:18.153Z,18.14
2023-04-10T10:16:21.820Z,18.19
2023-04-10T10:18:32.558Z,18.25
2023-04-10T10:20:36.611Z,18.37
2023-04-10T10:22:38.559Z,18.48
2023-04-10T10:24:45.061Z,18.60
2023-04-10T10:26:47.631Z,18.60
2023-04-10T10:28:50.781Z,18.66
2023-04-10T10:30:54.578Z,18.77
2023-04-10T10:32:58.246Z,18.96
2023-04-10T10:35:01.947Z,19.02
2023-04-10T10:37:05.770Z,19.11
2023-04-10T10:39:22.082Z,19.30
2023-04-10T10:41:28.728Z,19.41
2023-04-10T10:43:37.736Z,19.42
2023-04-10T10:45:42.776Z,19.49
2023-04-10T10:47:49.374Z,19.55
2023-04-10T10:49:55.948Z,19.69
2023-04-10T10:51:57.512Z,19.72
2023-04-10T10:53:59.199Z,19.85
2023-04-10T10:56:33.976Z,20.08
2023-04-10T10:58:46.900Z,20.24
2023-04-10T11:01:12.605Z,20.54
2023-04-10T11:03:30.879Z,20.86
2023-04-10T11:05:49.768Z,21.30
2023-04-10T11:08:09.840Z,21.49
2023-04-10T11:10:11.431Z,21.59
2023-04-10T11:12:13.082Z,21.95
2023-04-10T11:14:17.049Z,22.00
2023-04-10T11:16:19.592Z,21.91
2023-04-10T11:21:13.386Z,21.60
2023-04-10T11:23:14.937Z,21.69
2023-04-10T11:25:16.677Z,21.74
2023-04-10T11:27:44.590Z,21.72
2023-04-10T11:29:46.303Z,21.85
2023-04-10T11:31:56.491Z,21.77
2023-04-10T11:34:02.813Z,21.71
2023-04-10T11:36:04.979Z,21.78
2023-04-10T11:38:25.970Z,21.81
2023-04-10T11:40:27.538Z,21.83
2023-04-10T11:42:29.125Z,21.92
2023-04-10T11:44:32.428Z,22.07
2023-04-10T11:46:37.304Z,22.09
2023-04-10T11:48:38.934Z,22.21
2023-04-10T11:50:40.521Z,22.33
2023-04-10T11:52:42.167Z,22.39
2023-04-10T11:54:49.486Z,22.44
2023-04-10T11:57:00.096Z,22.44
2023-04-10T11:59:02.302Z,22.46
2023-04-10T12:01:04.844Z,22.35
2023-04-10T12:03:06.563Z,22.26
2023-04-10T12:05:09.284Z,22.07
2023-04-10T12:07:11.122Z,21.95
2023-04-10T12:09:13.450Z,21.96
2023-04-10T12:11:18.424Z,21.93
2023-04-10T12:13:24.887Z,22.04
2023-04-10T12:15:30.353Z,22.11
2023-04-10T12:17:32.097Z,22.15
2023-04-10T12:19:34.862Z,22.15
2023-04-10T12:21:36.754Z,22.24
2023-04-10T12:23:39.408Z,22.27
2023-04-10T12:25:41.850Z,22.26
2023-04-10T12:27:48.964Z,22.19
2023-04-10T12:29:52.000Z,22.18
2023-04-10T12:31:53.612Z,22.14
2023-04-10T12:33:55.292Z,22.08
2023-04-10T12:35:56.987Z,21.92
2023-04-10T12:37:58.622Z,21.72
2023-04-10T12:40:06.129Z,21.80
2023-04-10T12:42:11.530Z,21.80
2023-04-10T12:44:14.420Z,21.87
2023-04-10T12:46:24.445Z,21.90
2023-04-10T12:48:26.210Z,21.82
2023-04-10T12:50:27.781Z,21.73
2023-04-10T12:52:29.480Z,21.79
2023-04-10T12:54:32.841Z,21.86
2023-04-10T12:56:41.551Z,21.86
2023-04-10T12:58:43.160Z,21.84
2023-04-10T13:00:46.280Z,21.84
2023-04-10T13:02:49.111Z,21.91
2023-04-10T13:04:50.920Z,21.98
2023-04-10T13:06:52.648Z,21.94
2023-04-10T13:08:54.593Z,21.85
2023-04-10T13:10:59.603Z,21.89
2023-04-10T13:13:01.185Z,21.78
2023-04-10T13:15:03.319Z,21.69
2023-04-10T13:17:06.323Z,21.66
2023-04-10T13:19:07.919Z,21.66
2023-04-10T13:21:09.707Z,21.67
2023-04-10T13:23:11.541Z,21.64
2023-04-10T13:25:13.284Z,21.64
2023-04-10T13:27:14.954Z,21.56
2023-04-10T13:29:18.823Z,21.50
2023-04-10T13:31:20.429Z,21.48
2023-04-10T13:33:23.478Z,21.54
2023-04-10T13:35:25.079Z,21.54
2023-04-10T13:37:26.715Z,21.53
2023-04-10T13:39:29.466Z,21.56
2023-04-10T13:41:31.087Z,21.57
2023-04-10T13:43:32.874Z,21.55
2023-04-10T13:45:34.575Z,21.63
2023-04-10T13:47:36.251Z,21.67
2023-04-10T13:49:39.430Z,21.74
2023-04-10T13:51:41.004Z,21.75
2023-04-10T13:53:42.666Z,21.82
2023-04-10T13:55:44.760Z,21.81
2023-04-10T13:57:46.450Z,21.85
2023-04-10T13:59:48.010Z,21.87
2023-04-10T14:01:49.720Z,21.87
2023-04-10T14:03:51.633Z,21.90
2023-04-10T14:05:54.704Z,21.90
2023-04-10T14:07:56.292Z,21.85
2023-04-10T14:09:57.910Z,21.85
2023-04-10T14:11:59.556Z,21.82
2023-04-10T14:14:01.279Z,21.82
2023-04-10T14:16:03.001Z,21.81
2023-04-10T14:18:04.985Z,21.80
2023-04-10T14:20:07.870Z,21.80
2023-04-10T14:22:10.865Z,21.77
2023-04-10T14:24:12.413Z,21.73
2023-04-10T14:26:13.970Z,21.66
2023-04-10T14:28:15.589Z,21.61
2023-04-10T14:30:17.231Z,21.56
2023-04-10T14:32:18.913Z,21.58
2023-04-10T14:34:20.562Z,21.50
2023-04-10T14:36:22.129Z,21.47
2023-04-10T14:38:25.237Z,21.47
2023-04-10T14:40:26.827Z,21.45
2023-04-10T14:42:28.396Z,21.42
2023-04-10T14:44:30.309Z,21.45
2023-04-10T14:46:31.881Z,21.43
2023-04-10T14:48:33.498Z,21.39
2023-04-10T14:50:35.242Z,21.39
2023-04-10T14:52:36.975Z,21.39
2023-04-10T14:54:39.942Z,21.40
2023-04-10T14:56:41.628Z,21.47
2023-04-10T14:58:43.954Z,21.40
2023-04-10T15:00:45.683Z,21.40
2023-04-10T15:02:47.351Z,21.35
2023-04-10T15:04:50.746Z,21.30
2023-04-10T15:06:52.360Z,21.30
2023-04-10T15:08:55.000Z,21.27
2023-04-10T15:10:57.957Z,21.28
2023-04-10T15:12:59.560Z,21.28
2023-04-10T15:15:01.236Z,21.25
2023-04-10T15:17:02.997Z,21.22
2023-04-10T15:19:04.635Z,21.17
2023-04-10T15:21:06.380Z,21.16
2023-04-10T15:23:08.254Z,21.19
2023-04-10T15:25:10.035Z,21.16
2023-04-10T15:27:13.030Z,21.23
2023-04-10T15:29:14.869Z,21.25
2023-04-10T15:31:16.546Z,21.25
2023-04-10T15:33:18.175Z,21.21
2023-04-10T15:35:19.765Z,21.26
2023-04-10T15:37:21.272Z,21.27
2023-04-10T15:39:23.084Z,21.33
2023-04-10T15:41:24.547Z,21.32
2023-04-10T15:43:27.653Z,21.38
2023-04-10T15:45:29.414Z,21.39
2023-04-10T15:47:31.295Z,21.39
2023-04-10T15:49:37.663Z,21.40
2023-04-10T15:51:40.573Z,21.45
2023-04-10T15:53:42.323Z,21.46
2023-04-10T15:55:43.914Z,21.44
2023-04-10T15:57:47.722Z,21.40
2023-04-10T15:59:52.868Z,21.36
2023-04-10T16:01:54.575Z,21.40
2023-04-10T16:03:56.648Z,21.37
2023-04-10T16:05:58.621Z,21.37
2023-04-10T16:08:02.280Z,21.37
2023-04-10T16:10:04.301Z,21.36
2023-04-10T16:12:06.085Z,21.30
2023-04-10T16:14:07.753Z,21.22
2023-04-10T16:16:15.425Z,21.14
2023-04-10T16:18:17.219Z,21.16
2023-04-10T16:20:18.816Z,21.09
2023-04-10T16:22:20.517Z,21.09
2023-04-10T16:24:22.241Z,21.10
2023-04-10T16:26:24.008Z,21.06
2023-04-10T16:28:25.878Z,20.94
2023-04-10T16:30:27.403Z,20.95
2023-04-10T16:32:31.729Z,20.95
2023-04-10T16:34:34.392Z,20.95
2023-04-10T16:36:37.399Z,20.81
2023-04-10T16:38:39.013Z,20.75
2023-04-10T16:40:40.674Z,20.74
2023-04-10T16:42:42.549Z,20.78
2023-04-10T16:44:44.165Z,20.77
2023-04-10T16:46:45.793Z,20.85
2023-04-10T16:48:48.808Z,20.85
2023-04-10T16:50:50.511Z,20.78
2023-04-10T16:52:52.180Z,20.75
2023-04-10T16:54:53.765Z,20.76
2023-04-10T16:56:55.346Z,20.67
2023-04-10T16:58:57.298Z,20.64
2023-04-10T17:00:59.184Z,20.57
2023-04-10T17:03:00.926Z,20.52
2023-04-10T17:05:04.058Z,20.52
2023-04-10T17:07:05.801Z,20.40
2023-04-10T17:09:07.402Z,20.37
2023-04-10T17:11:09.257Z,20.37
2023-04-10T17:13:10.874Z,20.33
2023-04-10T17:15:12.580Z,20.23
2023-04-10T17:17:14.467Z,20.17
2023-04-10T17:19:16.034Z,20.13
2023-04-10T17:21:18.951Z,20.06
2023-04-10T17:23:20.616Z,20.08
2023-04-10T17:25:22.378Z,20.07
2023-04-10T17:27:23.963Z,20.00
2023-04-10T17:29:25.729Z,20.01
2023-04-10T17:31:27.417Z,20.02
2023-04-10T17:33:29.138Z,19.97
2023-04-10T17:35:30.812Z,19.95
2023-04-10T17:37:33.669Z,19.85
2023-04-10T17:39:35.165Z,19.83
2023-04-10T17:41:36.706Z,19.84
2023-04-10T17:43:38.235Z,19.83
2023-04-10T17:45:40.350Z,19.82
2023-04-10T17:47:41.973Z,19.83
2023-04-10T17:49:43.697Z,19.82
2023-04-10T17:51:45.254Z,19.81
2023-04-10T17:53:51.223Z,19.77
2023-04-10T17:55:52.758Z,19.74
2023-04-10T17:57:56.728Z,19.70
2023-04-10T17:59:58.316Z,19.72
2023-04-10T18:01:59.975Z,19.74
2023-04-10T18:04:03.554Z,19.71
2023-04-10T18:06:05.509Z,19.69
2023-04-10T18:08:07.137Z,19.68
2023-04-10T18:10:11.464Z,19.63
2023-04-10T18:12:13.295Z,19.56
2023-04-10T18:14:14.996Z,19.50
2023-04-10T18:16:16.749Z,19.50
2023-04-10T18:18:18.344Z,19.50
2023-04-10T18:20:20.069Z,19.47
2023-04-10T18:22:21.759Z,19.44
2023-04-10T18:24:23.329Z,19.43
2023-04-10T18:26:28.789Z,19.44
2023-04-10T18:28:30.356Z,19.43
2023-04-10T18:30:31.931Z,19.41
2023-04-10T18:32:33.525Z,19.36
2023-04-10T18:34:35.058Z,19.34
2023-04-10T18:36:36.621Z,19.31
2023-04-10T18:38:38.169Z,19.28
2023-04-10T18:40:39.780Z,19.30
2023-04-10T18:42:42.673Z,19.25
2023-04-10T18:44:44.344Z,19.20
2023-04-10T18:46:51.086Z,19.20
2023-04-10T18:48:55.551Z,19.18
2023-04-10T18:50:57.107Z,19.20
2023-04-10T18:52:58.650Z,19.22
2023-04-10T18:55:00.475Z,19.23
2023-04-10T18:57:02.329Z,19.23
2023-04-10T18:59:05.580Z,19.16
2023-04-10T19:01:07.318Z,19.15
2023-04-10T19:03:09.055Z,19.16
2023-04-10T19:05:10.665Z,19.10
2023-04-10T19:07:13.528Z,19.13
2023-04-10T19:09:15.200Z,19.09
2023-04-10T19:11:16.757Z,19.01
2023-04-10T19:13:18.378Z,18.98
2023-04-10T19:15:21.531Z,19.02
2023-04-10T19:17:23.192Z,19.04
2023-04-10T19:19:24.799Z,19.00
2023-04-10T19:21:26.392Z,18.96
2023-04-10T19:23:28.113Z,18.96
2023-04-10T19:25:29.993Z,18.91
2023-04-10T19:27:31.586Z,18.86
2023-04-10T19:29:33.164Z,18.75
2023-04-10T19:31:36.323Z,18.75
2023-04-10T19:33:38.021Z,18.71
2023-04-10T19:35:39.629Z,18.63
2023-04-10T19:37:41.270Z,18.65
2023-04-10T19:39:42.907Z,18.68
2023-04-10T19:41:44.542Z,18.70
2023-04-10T19:43:46.234Z,18.67
2023-04-10T19:45:47.870Z,18.63
2023-04-10T19:47:51.734Z,18.60
2023-04-10T19:49:53.344Z,18.63
2023-04-10T19:51:55.044Z,18.60
2023-04-10T19:53:56.885Z,18.61
2023-04-10T19:55:58.818Z,18.59
2023-04-10T19:58:00.382Z,18.55
2023-04-10T20:00:02.230Z,18.52
2023-04-10T20:02:03.985Z,18.48
2023-04-10T20:04:07.076Z,18.44
2023-04-10T20:06:08.849Z,18.45
2023-04-10T20:08:10.487Z,18.45
2023-04-10T20:10:12.119Z,18.40
2023-04-10T20:12:13.656Z,18.35
2023-04-10T20:14:15.525Z,18.41
2023-04-10T20:16:17.210Z,18.42
2023-04-10T20:18:18.935Z,18.40
2023-04-10T20:20:22.211Z,18.35
2023-04-10T20:22:23.822Z,18.32
2023-04-10T20:24:25.405Z,18.35
2023-04-10T20:26:27.003Z,18.31
2023-04-10T20:28:28.664Z,18.27
2023-04-10T20:30:30.437Z,18.27
2023-04-10T20:32:32.175Z,18.25
2023-04-10T20:34:35.362Z,18.25
2023-04-10T20:36:38.458Z,18.20
2023-04-10T20:38:40.317Z,18.18
2023-04-10T20:40:41.904Z,18.16
2023-04-10T20:42:43.542Z,18.15
2023-04-10T20:44:45.301Z,18.10
2023-04-10T20:46:47.321Z,18.08
2023-04-10T20:48:49.037Z,18.03
2023-04-10T20:50:50.658Z,18.08
2023-04-10T20:52:53.577Z,18.09
2023-04-10T20:54:55.117Z,18.02
2023-04-10T20:56:56.642Z,18.01
2023-04-10T20:58:58.220Z,18.00
2023-04-10T21:00:59.896Z,18.02
2023-04-10T21:03:01.738Z,18.00
2023-04-10T21:05:03.807Z,18.02
2023-04-10T21:07:05.372Z,18.05
2023-04-10T21:09:08.393Z,18.06
2023-04-10T21:11:09.963Z,18.05
2023-04-10T21:13:12.842Z,18.04
2023-04-10T21:15:14.398Z,18.04
2023-04-10T21:17:18.054Z,18.07
2023-04-10T21:19:19.684Z,18.07
2023-04-10T21:21:21.334Z,18.06
2023-04-10T21:23:25.862Z,18.09
2023-04-10T21:25:31.974Z,18.08
2023-04-10T21:27:33.535Z,18.02
2023-04-10T21:29:36.221Z,17.95
2023-04-10T21:31:37.774Z,17.95
2023-04-10T21:33:39.514Z,18.01
2023-04-10T21:35:42.319Z,18.03
2023-04-10T21:37:44.061Z,18.01
2023-04-10T21:39:45.626Z,18.02
2023-04-10T21:41:48.622Z,18.04
2023-04-10T21:43:50.181Z,18.04
2023-04-10T21:45:52.020Z,17.94
2023-04-10T21:47:53.800Z,17.88
2023-04-10T21:49:55.608Z,17.91
2023-04-10T21:51:57.218Z,17.86
2023-04-10T21:53:58.796Z,17.87
2023-04-10T21:56:00.577Z,17.83
2023-04-10T21:58:06.143Z,17.87
2023-04-10T22:00:08.951Z,17.90
2023-04-10T22:02:10.963Z,17.82
2023-04-10T22:04:12.745Z,17.80
2023-04-10T22:06:14.455Z,17.84
2023-04-10T22:08:16.216Z,17.88
2023-04-10T22:10:17.882Z,17.91
2023-04-10T22:12:19.555Z,17.89
2023-04-10T22:14:22.531Z,17.88
2023-04-10T22:16:24.296Z,17.84
2023-04-10T22:18:28.192Z,17.81
2023-04-10T22:20:31.841Z,17.80
2023-04-10T22:22:33.440Z,17.73
2023-04-10T22:24:35.398Z,17.69
2023-04-10T22:26:37.470Z,17.68
2023-04-10T22:28:39.241Z,17.69
2023-04-10T22:30:42.449Z,17.60
2023-04-10T22:32:44.334Z,17.61
2023-04-10T22:34:46.114Z,17.67
2023-04-10T22:36:48.153Z,17.67
2023-04-10T22:38:50.747Z,17.65
2023-04-10T22:40:54.005Z,17.66
2023-04-10T22:42:55.713Z,17.64
2023-04-10T22:44:57.262Z,17.61
2023-04-10T22:47:00.346Z,17.64
2023-04-10T22:49:02.135Z,17.60
2023-04-10T22:51:03.954Z,17.42
2023-04-10T22:53:05.664Z,17.35
2023-04-10T22:55:08.289Z,17.33
2023-04-10T22:57:10.154Z,17.45
2023-04-10T22:59:11.854Z,17.49
2023-04-10T23:01:13.540Z,17.39
2023-04-10T23:03:16.672Z,17.25
2023-04-10T23:05:18.383Z,17.19
2023-04-10T23:07:20.185Z,17.14
2023-04-10T23:09:21.856Z,17.17
2023-04-10T23:11:23.438Z,17.02
2023-04-10T23:13:25.129Z,17.03
2023-04-10T23:15:26.825Z,16.95
2023-04-10T23:17:28.568Z,16.95
2023-04-10T23:19:31.602Z,16.92
2023-04-10T23:21:33.339Z,16.87
2023-04-10T23:23:34.916Z,16.95
2023-04-10T23:25:37.191Z,16.90
2023-04-10T23:27:39.122Z,16.91
2023-04-10T23:29:40.816Z,16.89
2023-04-10T23:31:42.449Z,16.91
2023-04-10T23:33:44.148Z,16.95
2023-04-10T23:35:47.294Z,17.02
2023-04-10T23:37:49.751Z,16.87
2023-04-10T23:39:51.445Z,16.98
2023-04-10T23:41:53.055Z,16.86
2023-04-10T23:43:54.630Z,16.84
2023-04-10T23:45:56.236Z,16.77
2023-04-10T23:47:58.021Z,16.76
2023-04-10T23:49:59.884Z,16.77
2023-04-10T23:52:02.870Z,16.78
2023-04-10T23:54:05.610Z,16.74
2023-04-10T23:56:07.742Z,16.72
2023-04-10T23:58:09.357Z,16.75
